Main page
METAR-TAF:

METAR-TAF

Airports :

Doncaster Sheffield Airport

Doncaster, England

latitude: 53-29N, longitude: 001-00W, elevation: 17 m

Current weather observation

The report was made 19 minutes ago, at 03:20 UTC
Wind 5 kt from the Northwest
Temperature 7°C
Humidity 93%
Pressure 1016 hPa
Visibility 10 km or more
no clouds below 1500 m and no cumulonimbus

METAR: EGCN 230320Z 31005KT CAVOK 07/06 Q1016

Time: 04:39 (03:39 UTC)

Forecast

The report was made 3 hours and 10 minutes ago, at 00:29 UTC
Forecast valid from 23 at 00 UTC to 23 at 24 UTC
Wind 8 kt from the West/Northwest
Visibility 10 km or more
Few clouds at a height of 4500 ft
Probability 30% :
Temporary
from 23 at 13 UTC to 23 at 18 UTC
Visibility: 8000 m
rain showers

TAF: EGCN 230029Z 2300/2324 30008KT 9999 FEW045 PROB30 TEMPO 2313/2318 8000 SHRA

Weather observations and forecasts of more than 4000 airports (METAR and TAF reports).

The available stations are represented by yellow and red dots on the map.

Hover mouse over dot to see the name of the station.

Then click to see weather observations and forecasts.

To change the map : click on the green buttons with a black cross to zoom in, on the green button with a dash to zoom out, or on the green arrows for adjacent maps.


METAR-TAF: